Pierre, South Dakota
Current Conditions -  °F | °C
As of 11:53 AM on Sunday 23 Nov 2014 (Local Time) from KPIR Reporting Station
Overcast Overcast  
Wind Chill: 32°   Ceiling: 4600
Heat Index: 41°   Visibility: 10mi
Dew Point: 29°   Wind: 18mph
Humidity: 62%   Direction: 300°WNW
Pressure: 29.62"   Gusts: NA
Location:  44.37°N, 100.35°W
Report Text: KPIR 231753Z AUTO 30016KT 10SM OVC046 05/M02 A2962 RMK AO2 PK WND 30029/1704 SLP041 T00501017 10056 20022 50009
Loading
Personal Weather Stations






























Interactive Weather Map New forecast layout! Learn more

10-Day Weather Forecast

Advertisements
Track Severe Weather on mobile